sensor_id;sensor_type;location;lat;lon;timestamp;pressure;altitude;pressure_sealevel;temperature;humidity
25526;BME280;13424;48.424;11.258;2023-02-20T00:00:40;96602.25;;;10.02;72.21
25526;BME280;13424;48.424;11.258;2023-02-20T00:03:06;96604.00;;;9.76;72.36
25526;BME280;13424;48.424;11.258;2023-02-20T00:05:33;96603.38;;;9.88;72.52
25526;BME280;13424;48.424;11.258;2023-02-20T00:08:00;96601.19;;;9.58;73.05
25526;BME280;13424;48.424;11.258;2023-02-20T00:10:26;96598.88;;;9.82;72.63
25526;BME280;13424;48.424;11.258;2023-02-20T00:12:52;96597.69;;;9.64;72.77
25526;BME280;13424;48.424;11.258;2023-02-20T00:15:20;96588.94;;;10.02;71.67
25526;BME280;13424;48.424;11.258;2023-02-20T00:17:47;96593.19;;;10.16;71.44
25526;BME280;13424;48.424;11.258;2023-02-20T00:23:53;96593.31;;;9.90;71.78
25526;BME280;13424;48.424;11.258;2023-02-20T00:26:19;96588.00;;;9.83;72.19
25526;BME280;13424;48.424;11.258;2023-02-20T00:28:44;96588.22;;;9.82;72.34
25526;BME280;13424;48.424;11.258;2023-02-20T00:31:14;96590.44;;;9.85;72.25
25526;BME280;13424;48.424;11.258;2023-02-20T00:33:59;96587.88;;;10.10;71.22
25526;BME280;13424;48.424;11.258;2023-02-20T00:36:25;96590.25;;;10.38;70.51
25526;BME280;13424;48.424;11.258;2023-02-20T00:38:50;96589.09;;;10.14;70.94
25526;BME280;13424;48.424;11.258;2023-02-20T00:41:16;96591.25;;;10.43;70.48
25526;BME280;13424;48.424;11.258;2023-02-20T00:43:43;96585.44;;;10.01;71.77
25526;BME280;13424;48.424;11.258;2023-02-20T00:46:13;96592.06;;;10.44;69.88
25526;BME280;13424;48.424;11.258;2023-02-20T00:52:13;96593.31;;;9.90;71.62
25526;BME280;13424;48.424;11.258;2023-02-20T00:54:38;96598.94;;;10.13;71.45
25526;BME280;13424;48.424;11.258;2023-02-20T00:57:04;96605.00;;;9.89;72.08
25526;BME280;13424;48.424;11.258;2023-02-20T00:59:30;96600.81;;;10.06;71.38
25526;BME280;13424;48.424;11.258;2023-02-20T01:01:56;96608.22;;;10.04;70.99
25526;BME280;13424;48.424;11.258;2023-02-20T01:04:22;96605.22;;;9.81;72.20
25526;BME280;13424;48.424;11.258;2023-02-20T01:06:48;96609.19;;;10.16;71.15
25526;BME280;13424;48.424;11.258;2023-02-20T01:09:14;96595.78;;;9.78;72.02
25526;BME280;13424;48.424;11.258;2023-02-20T01:11:42;96588.56;;;9.98;71.87
25526;BME280;13424;48.424;11.258;2023-02-20T01:14:18;96586.47;;;10.07;71.62
25526;BME280;13424;48.424;11.258;2023-02-20T01:16:45;96591.69;;;9.89;71.96
25526;BME280;13424;48.424;11.258;2023-02-20T01:19:11;96590.47;;;9.71;72.36
25526;BME280;13424;48.424;11.258;2023-02-20T01:21:37;96588.38;;;9.87;71.78
25526;BME280;13424;48.424;11.258;2023-02-20T01:24:03;96590.41;;;9.98;71.88
25526;BME280;13424;48.424;11.258;2023-02-20T01:26:29;96578.13;;;9.97;71.85
25526;BME280;13424;48.424;11.258;2023-02-20T01:29:04;96584.06;;;9.92;71.64
25526;BME280;13424;48.424;11.258;2023-02-20T01:31:30;96578.50;;;9.94;71.81
25526;BME280;13424;48.424;11.258;2023-02-20T01:33:56;96583.91;;;9.81;72.66
25526;BME280;13424;48.424;11.258;2023-02-20T01:36:22;96597.75;;;10.02;72.24
25526;BME280;13424;48.424;11.258;2023-02-20T01:38:47;96599.91;;;9.81;72.16
25526;BME280;13424;48.424;11.258;2023-02-20T01:41:15;96578.50;;;9.94;71.98
25526;BME280;13424;48.424;11.258;2023-02-20T01:43:41;96583.16;;;9.60;73.33
25526;BME280;13424;48.424;11.258;2023-02-20T01:49:09;96570.75;;;9.92;72.76
25526;BME280;13424;48.424;11.258;2023-02-20T01:51:48;96571.88;;;9.65;73.58
25526;BME280;13424;48.424;11.258;2023-02-20T01:54:17;96561.47;;;9.57;74.04
25526;BME280;13424;48.424;11.258;2023-02-20T01:56:45;96570.34;;;9.89;73.42
25526;BME280;13424;48.424;11.258;2023-02-20T01:59:11;96565.63;;;9.91;73.46
25526;BME280;13424;48.424;11.258;2023-02-20T02:01:38;96565.56;;;9.52;74.49
25526;BME280;13424;48.424;11.258;2023-02-20T02:04:07;96577.38;;;9.63;74.19
25526;BME280;13424;48.424;11.258;2023-02-20T02:06:37;96570.84;;;9.72;73.73
25526;BME280;13424;48.424;11.258;2023-02-20T02:11:48;96577.81;;;9.60;74.52
25526;BME280;13424;48.424;11.258;2023-02-20T02:14:15;96570.59;;;9.81;73.88
25526;BME280;13424;48.424;11.258;2023-02-20T02:25:45;96562.53;;;9.94;73.14
25526;BME280;13424;48.424;11.258;2023-02-20T02:28:46;96564.25;;;9.75;73.90
25526;BME280;13424;48.424;11.258;2023-02-20T02:31:55;96558.94;;;9.75;73.67
25526;BME280;13424;48.424;11.258;2023-02-20T02:35:17;96558.06;;;9.88;73.40
25526;BME280;13424;48.424;11.258;2023-02-20T02:38:22;96549.19;;;9.49;74.49
25526;BME280;13424;48.424;11.258;2023-02-20T02:46:36;96542.81;;;9.50;73.98
25526;BME280;13424;48.424;11.258;2023-02-20T02:51:59;96552.50;;;9.96;73.21
25526;BME280;13424;48.424;11.258;2023-02-20T02:54:27;96552.44;;;9.51;74.54
25526;BME280;13424;48.424;11.258;2023-02-20T02:57:20;96554.16;;;9.90;73.21
25526;BME280;13424;48.424;11.258;2023-02-20T02:59:49;96560.56;;;9.76;73.27
25526;BME280;13424;48.424;11.258;2023-02-20T03:02:19;96556.00;;;9.90;73.16
25526;BME280;13424;48.424;11.258;2023-02-20T03:04:48;96551.06;;;9.87;72.87
25526;BME280;13424;48.424;11.258;2023-02-20T03:07:16;96559.25;;;9.92;72.74
25526;BME280;13424;48.424;11.258;2023-02-20T03:09:55;96553.41;;;9.63;73.71
25526;BME280;13424;48.424;11.258;2023-02-20T03:12:29;96556.59;;;9.92;73.06
25526;BME280;13424;48.424;11.258;2023-02-20T03:15:11;96547.81;;;9.85;73.11
25526;BME280;13424;48.424;11.258;2023-02-20T03:20:54;96537.63;;;9.68;73.53
25526;BME280;13424;48.424;11.258;2023-02-20T03:23:28;96532.00;;;9.38;74.30
25526;BME280;13424;48.424;11.258;2023-02-20T03:26:09;96537.25;;;9.58;73.74
25526;BME280;13424;48.424;11.258;2023-02-20T03:28:53;96528.13;;;9.28;74.00
25526;BME280;13424;48.424;11.258;2023-02-20T03:31:33;96527.75;;;9.17;74.62
25526;BME280;13424;48.424;11.258;2023-02-20T03:34:13;96529.19;;;9.13;74.73
25526;BME280;13424;48.424;11.258;2023-02-20T03:37:17;96536.50;;;9.38;74.16
25526;BME280;13424;48.424;11.258;2023-02-20T03:40:10;96536.09;;;9.41;73.59
25526;BME280;13424;48.424;11.258;2023-02-20T03:43:03;96532.88;;;8.99;74.75
25526;BME280;13424;48.424;11.258;2023-02-20T03:46:18;96537.31;;;9.38;73.59
25526;BME280;13424;48.424;11.258;2023-02-20T03:49:05;96539.22;;;9.25;73.62
25526;BME280;13424;48.424;11.258;2023-02-20T03:51:33;96542.72;;;9.05;74.19
25526;BME280;13424;48.424;11.258;2023-02-20T03:54:04;96545.78;;;9.09;74.03
25526;BME280;13424;48.424;11.258;2023-02-20T03:56:40;96555.38;;;9.23;73.36
25526;BME280;13424;48.424;11.258;2023-02-20T03:59:17;96552.09;;;9.21;73.79
25526;BME280;13424;48.424;11.258;2023-02-20T04:01:48;96544.34;;;9.19;73.76
25526;BME280;13424;48.424;11.258;2023-02-20T04:04:24;96549.22;;;9.29;72.92
25526;BME280;13424;48.424;11.258;2023-02-20T04:06:52;96556.63;;;9.07;73.74
25526;BME280;13424;48.424;11.258;2023-02-20T04:09:25;96555.59;;;9.08;73.68
25526;BME280;13424;48.424;11.258;2023-02-20T04:11:57;96558.25;;;9.08;73.90
25526;BME280;13424;48.424;11.258;2023-02-20T04:14:25;96554.16;;;9.12;73.00
25526;BME280;13424;48.424;11.258;2023-02-20T04:17:05;96555.84;;;8.93;73.87
25526;BME280;13424;48.424;11.258;2023-02-20T04:19:33;96568.09;;;9.14;73.35
25526;BME280;13424;48.424;11.258;2023-02-20T04:22:03;96566.66;;;8.92;74.21
25526;BME280;13424;48.424;11.258;2023-02-20T04:24:59;96554.00;;;8.94;73.92
25526;BME280;13424;48.424;11.258;2023-02-20T04:27:28;96543.94;;;9.09;73.51
25526;BME280;13424;48.424;11.258;2023-02-20T04:29:56;96549.28;;;8.76;74.04
25526;BME280;13424;48.424;11.258;2023-02-20T04:32:22;96552.13;;;8.75;74.30
25526;BME280;13424;48.424;11.258;2023-02-20T04:34:48;96551.72;;;8.98;73.72
25526;BME280;13424;48.424;11.258;2023-02-20T04:37:17;96547.63;;;9.02;73.18
25526;BME280;13424;48.424;11.258;2023-02-20T04:39:49;96555.84;;;8.80;73.34
25526;BME280;13424;48.424;11.258;2023-02-20T04:42:16;96559.31;;;9.01;72.67
25526;BME280;13424;48.424;11.258;2023-02-20T04:44:42;96557.25;;;8.89;72.96
25526;BME280;13424;48.424;11.258;2023-02-20T04:47:14;96550.50;;;8.87;72.96
25526;BME280;13424;48.424;11.258;2023-02-20T04:49:40;96547.63;;;8.75;73.00
25526;BME280;13424;48.424;11.258;2023-02-20T04:55:38;96554.19;;;8.59;74.33
25526;BME280;13424;48.424;11.258;2023-02-20T04:58:09;96551.31;;;8.54;74.00
25526;BME280;13424;48.424;11.258;2023-02-20T05:00:48;96552.34;;;8.60;73.41
25526;BME280;13424;48.424;11.258;2023-02-20T05:03:14;96556.22;;;8.51;73.78
25526;BME280;13424;48.424;11.258;2023-02-20T05:05:40;96552.94;;;8.35;74.44
25526;BME280;13424;48.424;11.258;2023-02-20T05:08:06;96562.75;;;8.35;73.89
25526;BME280;13424;48.424;11.258;2023-02-20T05:10:33;96556.56;;;8.28;74.65
25526;BME280;13424;48.424;11.258;2023-02-20T05:13:00;96560.84;;;8.29;74.28
25526;BME280;13424;48.424;11.258;2023-02-20T05:15:27;96569.44;;;8.18;74.85
25526;BME280;13424;48.424;11.258;2023-02-20T05:17:53;96570.94;;;8.40;73.90
25526;BME280;13424;48.424;11.258;2023-02-20T05:20:19;96562.09;;;8.33;74.48
25526;BME280;13424;48.424;11.258;2023-02-20T05:22:46;96563.34;;;8.37;73.75
25526;BME280;13424;48.424;11.258;2023-02-20T05:25:14;96565.63;;;8.40;73.91
25526;BME280;13424;48.424;11.258;2023-02-20T05:27:40;96559.84;;;8.30;74.22
25526;BME280;13424;48.424;11.258;2023-02-20T05:30:08;96567.22;;;7.73;75.94
25526;BME280;13424;48.424;11.258;2023-02-20T05:32:34;96566.94;;;8.09;74.99
25526;BME280;13424;48.424;11.258;2023-02-20T05:38:45;96564.06;;;8.04;75.31
25526;BME280;13424;48.424;11.258;2023-02-20T05:41:17;96564.25;;;7.96;75.17
25526;BME280;13424;48.424;11.258;2023-02-20T05:43:44;96567.53;;;7.98;75.35
25526;BME280;13424;48.424;11.258;2023-02-20T05:46:11;96570.03;;;8.20;74.49
25526;BME280;13424;48.424;11.258;2023-02-20T05:48:37;96573.59;;;7.79;76.09
25526;BME280;13424;48.424;11.258;2023-02-20T05:51:03;96573.59;;;8.40;74.03
25526;BME280;13424;48.424;11.258;2023-02-20T05:53:30;96575.69;;;7.90;74.87
25526;BME280;13424;48.424;11.258;2023-02-20T05:55:56;96574.03;;;7.89;74.88
25526;BME280;13424;48.424;11.258;2023-02-20T05:58:22;96573.44;;;7.94;74.86
25526;BME280;13424;48.424;11.258;2023-02-20T06:00:48;96574.47;;;7.93;75.02
25526;BME280;13424;48.424;11.258;2023-02-20T06:03:15;96579.50;;;7.81;75.50
25526;BME280;13424;48.424;11.258;2023-02-20T06:05:41;96585.41;;;7.70;75.78
25526;BME280;13424;48.424;11.258;2023-02-20T06:08:07;96578.88;;;7.72;76.15
25526;BME280;13424;48.424;11.258;2023-02-20T06:10:33;96578.31;;;7.83;75.48
25526;BME280;13424;48.424;11.258;2023-02-20T06:12:59;96582.31;;;8.14;74.57
25526;BME280;13424;48.424;11.258;2023-02-20T06:15:25;96575.69;;;7.90;74.86
25526;BME280;13424;48.424;11.258;2023-02-20T06:17:50;96585.84;;;7.80;75.63
25526;BME280;13424;48.424;11.258;2023-02-20T06:20:17;96582.41;;;7.86;75.29
25526;BME280;13424;48.424;11.258;2023-02-20T06:22:42;96581.69;;;7.64;75.93
25526;BME280;13424;48.424;11.258;2023-02-20T06:25:08;96578.38;;;7.55;76.31
25526;BME280;13424;48.424;11.258;2023-02-20T06:27:37;96577.66;;;7.75;75.51
25526;BME280;13424;48.424;11.258;2023-02-20T06:30:04;96578.34;;;7.90;75.00
25526;BME280;13424;48.424;11.258;2023-02-20T06:32:30;96580.09;;;7.70;75.59
25526;BME280;13424;48.424;11.258;2023-02-20T06:34:56;96587.38;;;7.54;75.85
25526;BME280;13424;48.424;11.258;2023-02-20T06:37:21;96594.25;;;7.83;75.48
25526;BME280;13424;48.424;11.258;2023-02-20T06:39:47;96594.09;;;7.92;74.96
25526;BME280;13424;48.424;11.258;2023-02-20T06:42:14;96592.19;;;7.79;75.32
25526;BME280;13424;48.424;11.258;2023-02-20T06:44:41;96593.44;;;7.90;74.46
25526;BME280;13424;48.424;11.258;2023-02-20T06:47:07;96590.38;;;7.86;75.57
25526;BME280;13424;48.424;11.258;2023-02-20T06:49:37;96587.06;;;7.77;75.51
25526;BME280;13424;48.424;11.258;2023-02-20T06:52:06;96600.34;;;7.77;75.95
25526;BME280;13424;48.424;11.258;2023-02-20T06:54:32;96601.00;;;7.86;75.72
25526;BME280;13424;48.424;11.258;2023-02-20T06:57:00;96610.03;;;7.92;75.56
25526;BME280;13424;48.424;11.258;2023-02-20T06:59:26;96609.19;;;7.91;75.45
25526;BME280;13424;48.424;11.258;2023-02-20T07:01:52;96596.44;;;7.67;77.18
25526;BME280;13424;48.424;11.258;2023-02-20T07:04:22;96607.66;;;8.17;74.38
25526;BME280;13424;48.424;11.258;2023-02-20T07:06:48;96608.47;;;8.17;75.18
25526;BME280;13424;48.424;11.258;2023-02-20T07:09:14;96611.75;;;8.26;74.93
25526;BME280;13424;48.424;11.258;2023-02-20T07:11:40;96615.91;;;8.35;74.97
25526;BME280;13424;48.424;11.258;2023-02-20T07:14:06;96621.03;;;8.36;75.10
25526;BME280;13424;48.424;11.258;2023-02-20T07:16:32;96620.84;;;8.38;75.10
25526;BME280;13424;48.424;11.258;2023-02-20T07:18:58;96620.25;;;8.49;74.47
25526;BME280;13424;48.424;11.258;2023-02-20T07:21:24;96622.88;;;8.36;74.91
25526;BME280;13424;48.424;11.258;2023-02-20T07:23:50;96623.75;;;8.56;74.55
25526;BME280;13424;48.424;11.258;2023-02-20T07:26:22;96620.44;;;8.41;74.60
25526;BME280;13424;48.424;11.258;2023-02-20T07:28:48;96618.06;;;8.86;73.41
25526;BME280;13424;48.424;11.258;2023-02-20T07:31:14;96613.53;;;9.33;72.93
25526;BME280;13424;48.424;11.258;2023-02-20T07:33:40;96598.38;;;9.20;72.92
25526;BME280;13424;48.424;11.258;2023-02-20T07:36:12;96607.78;;;9.49;72.25
25526;BME280;13424;48.424;11.258;2023-02-20T07:38:39;96602.84;;;9.52;72.28
25526;BME280;13424;48.424;11.258;2023-02-20T07:41:05;96594.47;;;9.49;71.80
25526;BME280;13424;48.424;11.258;2023-02-20T07:43:31;96604.47;;;9.60;71.57
25526;BME280;13424;48.424;11.258;2023-02-20T07:45:58;96604.91;;;9.31;71.87
25526;BME280;13424;48.424;11.258;2023-02-20T07:48:30;96604.09;;;9.30;71.82
25526;BME280;13424;48.424;11.258;2023-02-20T07:50:56;96606.53;;;9.51;71.53
25526;BME280;13424;48.424;11.258;2023-02-20T07:53:22;96602.00;;;9.59;71.32
25526;BME280;13424;48.424;11.258;2023-02-20T07:55:47;96597.25;;;9.81;70.85
25526;BME280;13424;48.424;11.258;2023-02-20T07:58:13;96592.16;;;9.72;71.08
25526;BME280;13424;48.424;11.258;2023-02-20T08:00:39;96588.03;;;9.63;71.58
25526;BME280;13424;48.424;11.258;2023-02-20T08:03:05;96581.00;;;9.89;70.63
25526;BME280;13424;48.424;11.258;2023-02-20T08:05:30;96588.44;;;9.80;71.10
25526;BME280;13424;48.424;11.258;2023-02-20T08:07:56;96583.59;;;10.02;70.22
25526;BME280;13424;48.424;11.258;2023-02-20T08:10:27;96595.41;;;9.74;70.50
25526;BME280;13424;48.424;11.258;2023-02-20T08:12:53;96585.88;;;9.98;70.46
25526;BME280;13424;48.424;11.258;2023-02-20T08:15:21;96593.03;;;10.11;69.00
25526;BME280;13424;48.424;11.258;2023-02-20T08:17:47;96590.66;;;10.34;69.23
25526;BME280;13424;48.424;11.258;2023-02-20T08:20:15;96582.25;;;10.38;69.01
25526;BME280;13424;48.424;11.258;2023-02-20T08:22:43;96589.25;;;10.25;69.44
25526;BME280;13424;48.424;11.258;2023-02-20T08:25:09;96579.06;;;10.54;68.61
25526;BME280;13424;48.424;11.258;2023-02-20T08:27:35;96576.56;;;10.27;68.45
25526;BME280;13424;48.424;11.258;2023-02-20T08:30:09;96586.34;;;10.65;67.57
25526;BME280;13424;48.424;11.258;2023-02-20T08:32:35;96583.34;;;10.86;66.64
25526;BME280;13424;48.424;11.258;2023-02-20T08:35:01;96584.88;;;11.01;67.07
25526;BME280;13424;48.424;11.258;2023-02-20T08:37:26;96585.81;;;10.81;66.51
25526;BME280;13424;48.424;11.258;2023-02-20T08:39:52;96594.84;;;11.12;66.33
25526;BME280;13424;48.424;11.258;2023-02-20T08:42:18;96576.56;;;11.34;64.67
25526;BME280;13424;48.424;11.258;2023-02-20T08:44:44;96560.69;;;11.39;65.48
25526;BME280;13424;48.424;11.258;2023-02-20T08:47:10;96564.38;;;11.81;64.60
25526;BME280;13424;48.424;11.258;2023-02-20T08:49:35;96559.81;;;11.63;64.02
25526;BME280;13424;48.424;11.258;2023-02-20T08:52:01;96556.97;;;12.13;62.93
25526;BME280;13424;48.424;11.258;2023-02-20T08:54:30;96554.09;;;11.96;64.33
25526;BME280;13424;48.424;11.258;2023-02-20T08:56:56;96551.81;;;11.63;63.04
25526;BME280;13424;48.424;11.258;2023-02-20T08:59:21;96549.31;;;11.87;63.02
25526;BME280;13424;48.424;11.258;2023-02-20T09:01:47;96535.66;;;12.07;62.21
25526;BME280;13424;48.424;11.258;2023-02-20T09:04:13;96541.03;;;11.70;62.48
25526;BME280;13424;48.424;11.258;2023-02-20T09:06:40;96540.31;;;11.81;62.47
25526;BME280;13424;48.424;11.258;2023-02-20T09:09:06;96549.34;;;11.98;62.10
25526;BME280;13424;48.424;11.258;2023-02-20T09:11:31;96557.94;;;12.00;62.15
25526;BME280;13424;48.424;11.258;2023-02-20T09:13:57;96549.06;;;11.88;61.15
25526;BME280;13424;48.424;11.258;2023-02-20T09:16:23;96557.66;;;12.09;62.26
25526;BME280;13424;48.424;11.258;2023-02-20T09:18:49;96549.03;;;11.33;62.60
25526;BME280;13424;48.424;11.258;2023-02-20T09:21:18;96556.09;;;11.46;62.00
25526;BME280;13424;48.424;11.258;2023-02-20T09:23:44;96546.91;;;11.97;62.70
25526;BME280;13424;48.424;11.258;2023-02-20T09:26:10;96550.97;;;11.99;61.94
25526;BME280;13424;48.424;11.258;2023-02-20T09:28:36;96551.81;;;12.30;62.25
25526;BME280;13424;48.424;11.258;2023-02-20T09:35:14;96510.06;;;12.29;62.35
25526;BME280;13424;48.424;11.258;2023-02-20T09:37:41;96498.19;;;11.95;61.25
25526;BME280;13424;48.424;11.258;2023-02-20T09:40:08;96493.50;;;12.09;61.04
25526;BME280;13424;48.424;11.258;2023-02-20T09:45:25;96501.94;;;12.36;60.77
25526;BME280;13424;48.424;11.258;2023-02-20T09:50:47;96498.97;;;12.79;59.51
25526;BME280;13424;48.424;11.258;2023-02-20T09:53:54;96483.63;;;12.98;61.57
25526;BME280;13424;48.424;11.258;2023-02-20T09:56:55;96487.34;;;13.08;59.85
25526;BME280;13424;48.424;11.258;2023-02-20T09:59:27;96482.44;;;13.17;59.89
25526;BME280;13424;48.424;11.258;2023-02-20T10:02:18;96490.97;;;13.02;59.75
25526;BME280;13424;48.424;11.258;2023-02-20T10:04:53;96488.78;;;13.23;59.99
25526;BME280;13424;48.424;11.258;2023-02-20T10:07:30;96494.09;;;13.34;59.58
25526;BME280;13424;48.424;11.258;2023-02-20T10:09:58;96489.81;;;12.98;58.77
25526;BME280;13424;48.424;11.258;2023-02-20T10:12:52;96490.59;;;12.75;59.59
25526;BME280;13424;48.424;11.258;2023-02-20T10:15:53;96482.22;;;12.83;60.15
25526;BME280;13424;48.424;11.258;2023-02-20T10:21:35;96471.75;;;12.58;60.40
25526;BME280;13424;48.424;11.258;2023-02-20T10:25:02;96465.09;;;12.49;60.78
25526;BME280;13424;48.424;11.258;2023-02-20T10:27:52;96466.03;;;13.02;60.07
25526;BME280;13424;48.424;11.258;2023-02-20T10:30:35;96471.19;;;13.03;59.10
25526;BME280;13424;48.424;11.258;2023-02-20T10:35:56;96466.41;;;13.05;58.52
25526;BME280;13424;48.424;11.258;2023-02-20T10:38:29;96460.69;;;13.13;58.36
25526;BME280;13424;48.424;11.258;2023-02-20T10:41:04;96465.03;;;13.66;58.71
25526;BME280;13424;48.424;11.258;2023-02-20T10:44:10;96462.31;;;13.38;58.86
25526;BME280;13424;48.424;11.258;2023-02-20T10:46:59;96456.75;;;13.28;58.35
25526;BME280;13424;48.424;11.258;2023-02-20T10:53:33;96444.66;;;13.94;57.74
25526;BME280;13424;48.424;11.258;2023-02-20T10:56:18;96442.88;;;13.71;56.50
25526;BME280;13424;48.424;11.258;2023-02-20T11:01:44;96431.34;;;13.71;57.04
25526;BME280;13424;48.424;11.258;2023-02-20T11:04:14;96431.53;;;14.09;55.64
25526;BME280;13424;48.424;11.258;2023-02-20T11:06:48;96435.84;;;14.44;55.54
25526;BME280;13424;48.424;11.258;2023-02-20T11:09:23;96424.53;;;13.51;54.25
25526;BME280;13424;48.424;11.258;2023-02-20T11:11:51;96423.88;;;14.01;56.69
25526;BME280;13424;48.424;11.258;2023-02-20T11:17:16;96424.31;;;14.27;53.63
25526;BME280;13424;48.424;11.258;2023-02-20T11:19:58;96405.53;;;14.94;52.93
25526;BME280;13424;48.424;11.258;2023-02-20T11:22:47;96420.00;;;14.25;53.84
25526;BME280;13424;48.424;11.258;2023-02-20T11:25:32;96395.91;;;14.98;54.59
25526;BME280;13424;48.424;11.258;2023-02-20T11:28:23;96391.72;;;14.68;53.96
25526;BME280;13424;48.424;11.258;2023-02-20T11:31:02;96381.78;;;14.86;55.99
25526;BME280;13424;48.424;11.258;2023-02-20T11:33:30;96384.56;;;14.57;54.09
25526;BME280;13424;48.424;11.258;2023-02-20T11:36:11;96383.41;;;15.08;54.89
25526;BME280;13424;48.424;11.258;2023-02-20T11:38:37;96385.25;;;15.03;54.87
25526;BME280;13424;48.424;11.258;2023-02-20T11:44:34;96371.03;;;14.86;52.14
25526;BME280;13424;48.424;11.258;2023-02-20T11:47:18;96378.78;;;15.04;53.97
25526;BME280;13424;48.424;11.258;2023-02-20T11:49:46;96354.88;;;15.02;52.73
25526;BME280;13424;48.424;11.258;2023-02-20T11:52:21;96361.91;;;15.30;52.41
25526;BME280;13424;48.424;11.258;2023-02-20T11:55:20;96363.09;;;15.40;51.72
25526;BME280;13424;48.424;11.258;2023-02-20T11:57:47;96355.91;;;15.23;51.18
25526;BME280;13424;48.424;11.258;2023-02-20T12:05:40;96347.09;;;15.50;52.83
25526;BME280;13424;48.424;11.258;2023-02-20T12:11:17;96344.38;;;15.99;51.10
25526;BME280;13424;48.424;11.258;2023-02-20T12:13:47;96340.16;;;16.08;51.36
25526;BME280;13424;48.424;11.258;2023-02-20T12:21:34;96322.53;;;15.63;50.33
25526;BME280;13424;48.424;11.258;2023-02-20T12:24:37;96320.50;;;15.75;52.93
25526;BME280;13424;48.424;11.258;2023-02-20T12:36:51;96311.75;;;16.22;51.78
25526;BME280;13424;48.424;11.258;2023-02-20T12:40:21;96305.38;;;15.69;50.08
25526;BME280;13424;48.424;11.258;2023-02-20T12:45:26;96299.44;;;16.31;50.43
25526;BME280;13424;48.424;11.258;2023-02-20T12:51:22;96292.91;;;16.22;50.24
25526;BME280;13424;48.424;11.258;2023-02-20T12:54:06;96286.34;;;16.08;48.91
25526;BME280;13424;48.424;11.258;2023-02-20T12:56:48;96298.09;;;16.34;50.00
25526;BME280;13424;48.424;11.258;2023-02-20T12:59:43;96285.66;;;16.23;50.56
25526;BME280;13424;48.424;11.258;2023-02-20T13:02:36;96295.84;;;16.58;50.82
25526;BME280;13424;48.424;11.258;2023-02-20T13:05:05;96291.56;;;16.62;49.36
25526;BME280;13424;48.424;11.258;2023-02-20T13:07:54;96287.44;;;16.91;50.05
25526;BME280;13424;48.424;11.258;2023-02-20T13:10:34;96282.22;;;16.69;49.89
25526;BME280;13424;48.424;11.258;2023-02-20T13:13:08;96277.91;;;16.73;49.17
25526;BME280;13424;48.424;11.258;2023-02-20T13:16:05;96285.84;;;16.53;48.45
25526;BME280;13424;48.424;11.258;2023-02-20T13:18:46;96285.13;;;16.68;50.34
25526;BME280;13424;48.424;11.258;2023-02-20T13:21:16;96284.72;;;16.07;49.70
25526;BME280;13424;48.424;11.258;2023-02-20T13:23:42;96285.06;;;16.58;48.97
25526;BME280;13424;48.424;11.258;2023-02-20T13:29:24;96281.81;;;16.56;50.54
25526;BME280;13424;48.424;11.258;2023-02-20T13:32:00;96271.34;;;17.07;49.59
25526;BME280;13424;48.424;11.258;2023-02-20T13:34:37;96269.16;;;17.03;49.83
25526;BME280;13424;48.424;11.258;2023-02-20T13:37:48;96266.47;;;17.03;49.31
25526;BME280;13424;48.424;11.258;2023-02-20T13:43:18;96247.63;;;17.09;47.61
25526;BME280;13424;48.424;11.258;2023-02-20T13:53:45;96234.19;;;17.29;48.38
25526;BME280;13424;48.424;11.258;2023-02-20T13:56:28;96242.66;;;16.75;49.31
25526;BME280;13424;48.424;11.258;2023-02-20T13:59:11;96236.50;;;16.90;49.25
25526;BME280;13424;48.424;11.258;2023-02-20T14:02:12;96220.13;;;17.07;48.74
25526;BME280;13424;48.424;11.258;2023-02-20T14:04:38;96228.50;;;17.15;48.90
25526;BME280;13424;48.424;11.258;2023-02-20T14:07:04;96221.38;;;16.79;48.67
25526;BME280;13424;48.424;11.258;2023-02-20T14:09:29;96214.88;;;16.74;49.85
25526;BME280;13424;48.424;11.258;2023-02-20T14:12:10;96214.19;;;16.99;47.72
25526;BME280;13424;48.424;11.258;2023-02-20T14:14:42;96213.59;;;16.87;49.38
25526;BME280;13424;48.424;11.258;2023-02-20T14:17:19;96212.72;;;16.71;49.15
25526;BME280;13424;48.424;11.258;2023-02-20T14:19:55;96211.94;;;16.81;47.38
25526;BME280;13424;48.424;11.258;2023-02-20T14:22:30;96201.75;;;16.83;49.73
25526;BME280;13424;48.424;11.258;2023-02-20T14:27:35;96198.31;;;17.18;48.61
25526;BME280;13424;48.424;11.258;2023-02-20T14:32:38;96187.25;;;17.20;48.40
25526;BME280;13424;48.424;11.258;2023-02-20T14:35:35;96179.09;;;16.89;47.66
25526;BME280;13424;48.424;11.258;2023-02-20T14:38:51;96179.44;;;16.35;48.09
25526;BME280;13424;48.424;11.258;2023-02-20T14:41:22;96170.53;;;16.40;48.58
25526;BME280;13424;48.424;11.258;2023-02-20T14:43:59;96169.28;;;16.53;49.47
25526;BME280;13424;48.424;11.258;2023-02-20T14:46:29;96168.47;;;16.52;49.98
25526;BME280;13424;48.424;11.258;2023-02-20T14:49:16;96156.38;;;16.65;50.02
25526;BME280;13424;48.424;11.258;2023-02-20T14:51:47;96169.91;;;16.80;49.59
25526;BME280;13424;48.424;11.258;2023-02-20T14:54:22;96164.72;;;16.63;48.61
25526;BME280;13424;48.424;11.258;2023-02-20T14:56:49;96158.00;;;16.61;49.46
25526;BME280;13424;48.424;11.258;2023-02-20T14:59:30;96150.94;;;16.50;50.62
25526;BME280;13424;48.424;11.258;2023-02-20T15:02:24;96145.50;;;16.39;49.91
25526;BME280;13424;48.424;11.258;2023-02-20T15:04:54;96153.25;;;16.83;50.76
25526;BME280;13424;48.424;11.258;2023-02-20T15:07:23;96148.28;;;16.65;49.71
25526;BME280;13424;48.424;11.258;2023-02-20T15:09:59;96144.72;;;16.44;49.47
25526;BME280;13424;48.424;11.258;2023-02-20T15:12:38;96140.19;;;16.55;50.78
25526;BME280;13424;48.424;11.258;2023-02-20T15:15:11;96136.44;;;16.66;49.80
25526;BME280;13424;48.424;11.258;2023-02-20T15:17:40;96127.03;;;16.63;50.19
25526;BME280;13424;48.424;11.258;2023-02-20T15:23:27;96119.66;;;16.38;49.03
25526;BME280;13424;48.424;11.258;2023-02-20T15:25:54;96113.22;;;16.39;49.30